Time;durP1;ratioP1;P1;durP2;ratioP2;P2;SDS_P1;SDS_P2;PMS_P1;PMS_P2;Temp;Humidity;BMP_temperature;BMP_pressure;BME280_temperature;BME280_humidity;BME280_pressure;Samples;Min_cycle;Max_cycle;Signal;HPM_P1;HPM_P2
2023/01/08 00:01:55;;;;;;;4.15;3.13;;;;;;;9.03;100.00;100273.16;5109112;28;20096;-75
2023/01/08 00:04:20;;;;;;;5.55;2.25;;;;;;;8.99;100.00;100269.28;5109324;28;20039;-75
2023/01/08 00:06:46;;;;;;;2.97;2.60;;;;;;;8.92;100.00;100265.75;5107910;28;20035;-75
2023/01/08 00:09:11;;;;;;;8.15;2.50;;;;;;;8.97;100.00;100271.31;5109183;28;20066;-75
2023/01/08 00:11:37;;;;;;;5.70;2.70;;;;;;;8.94;100.00;100274.38;5109276;28;20115;-75
2023/01/08 00:14:03;;;;;;;5.88;3.03;;;;;;;8.93;100.00;100272.72;5109224;28;20020;-75
2023/01/08 00:16:28;;;;;;;4.75;2.85;;;;;;;8.90;100.00;100273.13;5111184;28;20389;-75
2023/01/08 00:18:54;;;;;;;3.30;2.58;;;;;;;8.91;100.00;100275.59;5113462;28;20214;-75
2023/01/08 00:21:19;;;;;;;4.90;2.63;;;;;;;8.90;100.00;100270.47;5113343;28;20060;-75
2023/01/08 00:23:45;;;;;;;4.80;3.53;;;;;;;8.97;100.00;100268.66;5112917;28;20045;-75
2023/01/08 00:26:12;;;;;;;4.10;2.88;;;;;;;8.99;100.00;100267.44;5113203;28;20027;-75
2023/01/08 00:28:39;;;;;;;10.23;5.32;;;;;;;9.06;100.00;100267.44;5113239;28;20058;-75
2023/01/08 00:31:06;;;;;;;5.47;2.72;;;;;;;9.10;100.00;100265.19;5111965;28;20084;-75
2023/01/08 00:33:32;;;;;;;5.82;2.47;;;;;;;9.11;100.00;100264.97;5113112;28;20023;-75
2023/01/08 00:35:58;;;;;;;5.43;2.47;;;;;;;9.07;100.00;100250.47;5113077;28;20034;-75
2023/01/08 00:38:27;;;;;;;6.40;2.90;;;;;;;9.08;100.00;100253.94;5113145;28;20035;-75
2023/01/08 00:40:53;;;;;;;4.07;2.20;;;;;;;9.07;100.00;100247.81;5093116;28;20063;-75
2023/01/08 00:43:18;;;;;;;4.47;2.55;;;;;;;9.04;100.00;100236.72;5091906;28;20063;-75
2023/01/08 00:45:43;;;;;;;4.03;2.55;;;;;;;9.07;100.00;100244.31;5093148;28;20109;-75
2023/01/08 00:48:09;;;;;;;7.68;2.70;;;;;;;8.97;100.00;100221.59;5093318;28;20126;-75
2023/01/08 00:50:35;;;;;;;4.80;2.60;;;;;;;9.01;100.00;100229.97;5093328;28;20024;-75
2023/01/08 00:53:01;;;;;;;5.78;2.45;;;;;;;9.05;100.00;100236.53;5093071;28;20028;-75
2023/01/08 00:55:26;;;;;;;6.63;3.92;;;;;;;9.06;100.00;100240.81;5093185;28;20024;-75
2023/01/08 00:57:51;;;;;;;7.65;3.58;;;;;;;9.05;100.00;100233.06;5094122;28;20040;-75
2023/01/08 01:00:17;;;;;;;4.78;2.72;;;;;;;9.07;100.00;100223.06;5112444;28;20039;-75
2023/01/08 01:02:43;;;;;;;5.75;2.78;;;;;;;9.11;100.00;100227.75;5112497;28;20482;-75
2023/01/08 01:05:09;;;;;;;6.00;2.95;;;;;;;9.10;100.00;100230.63;5112530;28;20031;-75
2023/01/08 01:07:35;;;;;;;5.55;2.53;;;;;;;9.10;100.00;100231.44;5111110;28;20509;-75
2023/01/08 01:10:01;;;;;;;3.53;2.85;;;;;;;9.09;100.00;100226.31;5112396;28;20019;-75
2023/01/08 01:12:27;;;;;;;3.13;2.58;;;;;;;9.06;100.00;100222.22;5112769;28;20046;-75
2023/01/08 01:14:52;;;;;;;4.45;2.97;;;;;;;9.07;100.00;100221.19;5095318;28;20035;-75
2023/01/08 01:17:18;;;;;;;5.75;2.75;;;;;;;9.06;100.00;100226.72;5091299;28;20039;-75
2023/01/08 01:19:44;;;;;;;6.05;3.33;;;;;;;9.03;100.00;100206.66;5092791;28;20032;-75
2023/01/08 01:22:09;;;;;;;5.78;3.33;;;;;;;9.02;100.00;100207.69;5092627;28;20023;-75
2023/01/08 01:24:35;;;;;;;4.85;2.75;;;;;;;9.00;100.00;100205.22;5091220;28;20028;-75
2023/01/08 01:27:00;;;;;;;5.38;3.08;;;;;;;9.04;100.00;100208.31;5091707;28;20039;-75
2023/01/08 01:29:25;;;;;;;6.60;2.63;;;;;;;9.04;100.00;100205.66;5092517;28;20036;-74
2023/01/08 01:31:51;;;;;;;6.20;3.45;;;;;;;9.04;100.00;100202.16;5091146;28;20123;-75
2023/01/08 01:34:16;;;;;;;9.10;2.70;;;;;;;9.03;100.00;100193.34;5092379;28;20028;-75
2023/01/08 01:36:42;;;;;;;7.35;2.63;;;;;;;9.07;100.00;100194.59;5092342;28;20111;-75
2023/01/08 01:39:08;;;;;;;5.97;2.80;;;;;;;9.04;100.00;100180.88;5092372;28;20031;-75
2023/01/08 01:41:42;;;;;;;7.90;2.92;;;;;;;9.05;100.00;100191.31;5092277;28;20046;-74
2023/01/08 01:44:32;;;;;;;4.35;2.70;;;;;;;9.10;100.00;100193.38;5091787;28;20048;-74
2023/01/08 01:46:58;;;;;;;5.65;3.03;;;;;;;9.11;100.00;100203.78;5092007;28;20028;-74
2023/01/08 01:49:24;;;;;;;6.78;3.30;;;;;;;9.12;100.00;100194.81;5092116;28;20584;-74
2023/01/08 01:51:54;;;;;;;6.25;3.42;;;;;;;9.15;100.00;100210.38;5092061;28;20398;-75
2023/01/08 01:54:21;;;;;;;8.00;3.10;;;;;;;9.17;100.00;100207.50;5092001;28;20051;-75
2023/01/08 01:56:46;;;;;;;6.35;3.13;;;;;;;9.15;100.00;100209.56;5092009;28;20364;-75
2023/01/08 01:59:12;;;;;;;10.90;3.20;;;;;;;9.18;100.00;100214.47;5091835;28;20081;-75
2023/01/08 02:01:40;;;;;;;5.63;3.17;;;;;;;9.16;100.00;100222.63;5091847;28;20036;-75
2023/01/08 02:04:08;;;;;;;5.85;2.85;;;;;;;9.14;100.00;100221.19;5091803;28;20068;-74
2023/01/08 02:06:37;;;;;;;2.90;2.08;;;;;;;8.98;100.00;100220.56;5091814;28;20028;-76
2023/01/08 02:09:40;;;;;;;4.88;2.17;;;;;;;8.71;100.00;100218.88;5091731;28;20020;-77
2023/01/08 02:12:25;;;;;;;4.95;2.03;;;;;;;8.38;100.00;100218.69;5091508;28;20032;-77
2023/01/08 02:15:10;;;;;;;2.78;1.35;;;;;;;8.21;100.00;100213.72;5091784;28;20034;-76
2023/01/08 02:17:47;;;;;;;4.70;1.80;;;;;;;7.98;100.00;100206.03;5090184;28;20024;-77
2023/01/08 02:20:15;;;;;;;2.55;1.58;;;;;;;7.93;100.00;100212.94;5091521;28;20467;-77
2023/01/08 02:22:54;;;;;;;3.17;1.80;;;;;;;7.86;100.00;100207.63;5091324;28;20031;-77
2023/01/08 02:25:45;;;;;;;3.38;1.40;;;;;;;7.77;100.00;100208.78;5089986;28;20494;-77
2023/01/08 02:28:13;;;;;;;2.05;1.20;;;;;;;7.74;100.00;100190.56;5089417;28;20043;-77
2023/01/08 02:30:40;;;;;;;6.93;1.40;;;;;;;7.69;100.00;100196.47;5091305;28;20077;-77
2023/01/08 02:33:05;;;;;;;3.42;1.75;;;;;;;7.61;100.00;100186.00;5091269;28;20595;-77
2023/01/08 02:35:43;;;;;;;1.88;1.02;;;;;;;7.59;100.00;100186.19;5089929;28;20044;-77
2023/01/08 02:38:13;;;;;;;3.80;2.08;;;;;;;7.61;100.00;100181.50;5091190;28;20571;-77
2023/01/08 02:41:01;;;;;;;3.83;1.25;;;;;;;7.57;100.00;100168.81;5091019;28;20046;-77
2023/01/08 02:43:36;;;;;;;2.92;1.50;;;;;;;7.59;100.00;100172.91;5090933;28;20032;-77
2023/01/08 02:46:04;;;;;;;4.65;1.00;;;;;;;7.59;100.00;100166.78;5089559;28;20090;-77
2023/01/08 02:48:44;;;;;;;2.28;1.30;;;;;;;7.55;100.00;100178.81;5091024;28;20069;-77
2023/01/08 02:51:22;;;;;;;5.43;2.13;;;;;;;7.55;100.00;100179.63;5091019;28;20134;-77
2023/01/08 02:53:51;;;;;;;5.72;1.70;;;;;;;7.57;100.00;100182.91;5090818;28;20024;-77
2023/01/08 02:56:25;;;;;;;2.30;1.15;;;;;;;7.51;100.00;100174.91;5090895;28;20111;-77
2023/01/08 02:58:52;;;;;;;3.17;0.90;;;;;;;7.51;100.00;100177.56;5090856;28;20027;-77
2023/01/08 03:01:21;;;;;;;2.80;1.17;;;;;;;7.54;100.00;100185.13;5089453;28;20036;-77
2023/01/08 03:03:51;;;;;;;3.42;0.75;;;;;;;7.52;100.00;100184.50;5090591;28;20020;-77
2023/01/08 03:06:18;;;;;;;4.28;1.23;;;;;;;7.50;100.00;100191.84;5088840;28;20032;-77
2023/01/08 03:08:47;;;;;;;4.90;2.05;;;;;;;7.45;100.00;100177.31;5089220;28;20038;-77
2023/01/08 03:11:16;;;;;;;4.03;2.10;;;;;;;7.43;100.00;100187.28;5090452;28;20043;-77
2023/01/08 03:14:02;;;;;;;5.32;1.83;;;;;;;7.38;100.00;100175.63;5090458;28;20516;-77
2023/01/08 03:16:49;;;;;;;5.22;1.05;;;;;;;7.38;100.00;100178.28;5090395;28;20114;-77
2023/01/08 03:19:31;;;;;;;3.83;1.00;;;;;;;7.32;100.00;100163.13;5090518;28;20085;-77
2023/01/08 03:21:57;;;;;;;;;;;;;;;7.35;100.00;100160.09;5091036;28;20054;-77
2023/01/08 03:24:28;;;;;;;7.10;1.42;;;;;;;7.31;100.00;100154.38;5090235;28;20359;-77
2023/01/08 03:26:57;;;;;;;3.63;0.90;;;;;;;7.32;100.00;100163.94;5090318;28;20024;-77
2023/01/08 03:29:23;;;;;;;4.57;0.90;;;;;;;7.33;100.00;100164.75;5088710;28;20463;-77
2023/01/08 03:31:56;;;;;;;4.13;1.88;;;;;;;7.31;100.00;100166.78;5090240;28;20387;-77
2023/01/08 03:34:24;;;;;;;2.70;0.60;;;;;;;7.30;100.00;100165.97;5109680;28;20431;-77
2023/01/08 03:36:52;;;;;;;4.57;1.08;;;;;;;7.34;100.00;100167.22;5109780;28;20019;-77
2023/01/08 03:39:24;;;;;;;2.85;0.75;;;;;;;7.36;100.00;100172.34;5109746;28;20031;-77
2023/01/08 03:41:55;;;;;;;4.80;1.40;;;;;;;7.32;100.00;100158.66;5109687;28;20478;-77
2023/01/08 03:44:20;;;;;;;5.50;1.27;;;;;;;7.37;100.00;100164.19;5109607;28;20048;-77
2023/01/08 03:46:51;;;;;;;6.68;1.00;;;;;;;7.38;100.00;100168.47;5109549;28;20382;-77
2023/01/08 03:49:20;;;;;;;3.17;0.77;;;;;;;7.31;100.00;100148.22;5108003;28;20132;-77
2023/01/08 03:51:46;;;;;;;10.23;2.80;;;;;;;7.36;100.00;100153.75;5109324;28;20428;-77
2023/01/08 03:54:18;;;;;;;1.65;0.70;;;;;;;7.38;100.00;100157.88;5109387;28;20027;-77
2023/01/08 03:56:43;;;;;;;;;;;;;;;7.40;100.00;100157.69;5109988;28;20028;-77
2023/01/08 03:59:12;;;;;;;0.98;0.88;;;;;;;7.39;100.00;100148.91;5109514;28;20320;-77
2023/01/08 04:01:38;;;;;;;1.42;0.90;;;;;;;7.41;100.00;100151.34;5109454;28;20114;-77
2023/01/08 04:04:04;;;;;;;4.28;1.88;;;;;;;7.43;100.00;100154.63;5109249;28;20119;-77
2023/01/08 04:06:29;;;;;;;4.22;0.82;;;;;;;7.42;100.00;100140.56;5109319;28;20040;-77
2023/01/08 04:08:55;;;;;;;5.97;0.90;;;;;;;7.46;100.00;100139.16;5109260;28;20016;-77
2023/01/08 04:11:21;;;;;;;2.10;1.08;;;;;;;7.45;100.00;100129.56;5109216;28;20114;-77
2023/01/08 04:13:46;;;;;;;6.00;0.90;;;;;;;7.49;100.00;100137.13;5109286;28;20468;-77
2023/01/08 04:16:12;;;;;;;4.85;0.93;;;;;;;7.50;100.00;100128.97;5109188;28;20034;-77
2023/01/08 04:18:37;;;;;;;1.90;1.35;;;;;;;7.48;100.00;100136.31;5107900;28;20063;-77
2023/01/08 04:21:02;;;;;;;1.52;1.00;;;;;;;7.51;100.00;100130.59;5107830;28;20470;-77
2023/01/08 04:23:28;;;;;;;8.65;3.05;;;;;;;7.53;100.00;100125.13;5109030;28;20470;-77
2023/01/08 04:25:53;;;;;;;0.85;0.60;;;;;;;7.51;100.00;100121.84;5109238;28;20024;-77
2023/01/08 04:28:19;;;;;;;3.85;0.98;;;;;;;7.53;100.00;100125.94;5098081;28;20525;-77
2023/01/08 04:30:44;;;;;;;6.75;1.50;;;;;;;7.54;100.00;100116.13;5089667;28;20502;-77
2023/01/08 04:33:10;;;;;;;3.17;1.33;;;;;;;7.54;100.00;100113.47;5088210;28;20038;-77
2023/01/08 04:35:36;;;;;;;1.48;1.27;;;;;;;7.55;100.00;100123.91;5089659;28;20055;-77
2023/01/08 04:38:01;;;;;;;3.17;1.35;;;;;;;7.50;100.00;100115.72;5089471;28;20032;-77
2023/01/08 04:40:26;;;;;;;3.90;1.30;;;;;;;7.52;100.00;100118.16;5089587;28;20032;-77
2023/01/08 04:42:52;;;;;;;4.75;1.45;;;;;;;7.49;100.00;100110.59;5089408;28;20039;-77
2023/01/08 04:45:17;;;;;;;1.73;1.15;;;;;;;7.53;100.00;100110.00;5089432;28;20078;-77
2023/01/08 04:47:43;;;;;;;2.72;1.17;;;;;;;7.52;100.00;100111.03;5089657;28;20032;-77
2023/01/08 04:50:08;;;;;;;12.82;3.05;;;;;;;7.54;100.00;100113.47;5088220;28;20344;-77
2023/01/08 04:52:35;;;;;;;6.22;1.60;;;;;;;7.57;100.00;100107.78;5088025;28;20036;-77
2023/01/08 04:55:00;;;;;;;2.30;1.90;;;;;;;7.58;100.00;100106.78;5089327;28;20028;-77
2023/01/08 04:57:26;;;;;;;3.17;1.65;;;;;;;7.52;100.00;100091.63;5089393;28;20081;-77
2023/01/08 04:59:51;;;;;;;3.70;1.45;;;;;;;7.56;100.00;100114.94;5089500;28;20106;-77
2023/01/08 05:02:17;;;;;;;4.97;1.63;;;;;;;7.57;100.00;100110.44;5090548;28;20483;-77
2023/01/08 05:04:43;;;;;;;4.20;1.90;;;;;;;7.58;100.00;100114.75;5091529;28;20044;-77
2023/01/08 05:07:08;;;;;;;4.97;1.40;;;;;;;7.58;100.00;100114.75;5092867;28;20074;-77
2023/01/08 05:09:33;;;;;;;1.88;1.42;;;;;;;7.58;100.00;100098.81;5093302;28;20471;-77
2023/01/08 05:11:59;;;;;;;5.68;1.70;;;;;;;7.57;100.00;100105.97;5092981;28;20391;-77
2023/01/08 05:14:25;;;;;;;4.20;1.48;;;;;;;7.55;100.00;100099.22;5091530;28;20042;-77
2023/01/08 05:16:50;;;;;;;4.95;1.10;;;;;;;7.56;100.00;100106.16;5091452;28;20089;-77
2023/01/08 05:19:16;;;;;;;3.42;1.25;;;;;;;7.53;100.00;100107.34;5092630;28;20020;-77
2023/01/08 05:21:41;;;;;;;5.50;2.28;;;;;;;7.54;100.00;100114.28;5092577;28;20108;-77
2023/01/08 05:24:08;;;;;;;3.13;1.40;;;;;;;7.53;100.00;100109.19;5091069;28;20059;-77
2023/01/08 05:26:34;;;;;;;3.80;1.25;;;;;;;7.52;100.00;100102.22;5092749;28;20036;-77
2023/01/08 05:28:59;;;;;;;4.80;1.13;;;;;;;7.52;100.00;100095.13;5092532;28;20081;-77
2023/01/08 05:31:25;;;;;;;2.92;1.20;;;;;;;7.53;100.00;100112.66;5091099;28;20486;-77
2023/01/08 05:33:50;;;;;;;6.22;3.00;;;;;;;7.51;100.00;100106.72;5092526;28;20298;-77
2023/01/08 05:36:16;;;;;;;1.63;1.33;;;;;;;7.53;100.00;100103.91;5092420;28;20077;-77
2023/01/08 05:38:41;;;;;;;5.45;1.40;;;;;;;7.55;100.00;100104.53;5092383;28;20027;-77
2023/01/08 05:41:07;;;;;;;2.25;1.38;;;;;;;7.54;100.00;100093.06;5092271;28;20028;-77
2023/01/08 05:43:33;;;;;;;1.35;1.10;;;;;;;7.56;100.00;100082.28;5092214;28;20497;-77
2023/01/08 05:46:00;;;;;;;4.72;1.50;;;;;;;7.55;100.00;100083.31;5092123;28;20418;-77
2023/01/08 05:48:27;;;;;;;2.38;1.63;;;;;;;7.51;100.00;100074.88;5092086;28;20032;-77
2023/01/08 05:50:52;;;;;;;3.35;1.40;;;;;;;7.50;100.00;100073.25;5092099;28;20081;-77
2023/01/08 05:53:18;;;;;;;4.03;1.63;;;;;;;7.51;100.00;100072.25;5091952;28;20102;-77
2023/01/08 05:55:43;;;;;;;6.97;1.60;;;;;;;7.55;100.00;100083.31;5092052;28;20494;-77
2023/01/08 05:58:10;;;;;;;4.63;2.25;;;;;;;7.53;100.00;100082.66;5090835;28;20086;-77
2023/01/08 06:00:36;;;;;;;4.07;1.92;;;;;;;7.49;100.00;100087.53;5091921;28;20027;-77
2023/01/08 06:03:02;;;;;;;3.35;1.40;;;;;;;7.44;100.00;100092.59;5091902;28;20061;-77
2023/01/08 06:05:29;;;;;;;2.42;1.60;;;;;;;7.34;100.00;100097.44;5090373;28;20040;-77
2023/01/08 06:07:55;;;;;;;2.95;1.40;;;;;;;7.25;100.00;100088.81;5111247;28;20538;-77
2023/01/08 06:10:20;;;;;;;3.97;1.27;;;;;;;7.20;100.00;100094.72;5111335;28;20122;-77
2023/01/08 06:12:46;;;;;;;6.00;1.60;;;;;;;7.11;100.00;100100.34;5110771;28;20071;-77
2023/01/08 06:15:11;;;;;;;5.82;1.48;;;;;;;6.99;100.00;100095.53;5109835;28;20122;-77
2023/01/08 06:17:37;;;;;;;5.07;1.75;;;;;;;6.94;100.00;100105.09;5109822;28;20024;-77
2023/01/08 06:20:02;;;;;;;2.70;1.45;;;;;;;6.84;100.00;100113.38;5110982;28;20478;-77
2023/01/08 06:22:28;;;;;;;3.53;1.40;;;;;;;6.77;100.00;100121.25;5111068;28;20486;-77
2023/01/08 06:24:53;;;;;;;4.53;1.63;;;;;;;6.70;100.00;100128.31;5110891;28;20537;-77
2023/01/08 06:27:18;;;;;;;3.47;1.70;;;;;;;6.64;100.00;100129.09;5110971;28;20050;-77
2023/01/08 06:29:44;;;;;;;5.97;1.40;;;;;;;6.57;100.00;100131.66;5110880;28;20020;-77
2023/01/08 06:32:09;;;;;;;3.53;1.38;;;;;;;6.52;100.00;100133.22;5109454;28;20027;-77
2023/01/08 06:34:35;;;;;;;3.13;1.70;;;;;;;6.44;100.00;100126.22;5110736;28;20501;-77
2023/01/08 06:37:00;;;;;;;2.38;1.20;;;;;;;6.41;100.00;100128.44;5109665;28;20059;-77
2023/01/08 06:39:26;;;;;;;5.28;1.30;;;;;;;6.39;100.00;100144.50;5110498;28;20035;-77
2023/01/08 06:41:51;;;;;;;3.72;1.25;;;;;;;6.35;100.00;100146.72;5109679;28;20027;-77
2023/01/08 06:44:17;;;;;;;4.53;1.25;;;;;;;6.29;100.00;100144.81;5110851;28;20097;-77
2023/01/08 06:46:42;;;;;;;7.47;2.28;;;;;;;6.28;100.00;100147.63;5109137;28;20024;-77
2023/01/08 06:49:08;;;;;;;2.55;1.08;;;;;;;6.24;100.00;100155.16;5096618;28;20030;-77
2023/01/08 06:51:34;;;;;;;6.28;1.63;;;;;;;6.21;100.00;100155.53;5090959;28;20116;-77
2023/01/08 06:53:59;;;;;;;2.67;0.70;;;;;;;6.18;100.00;100158.50;5090922;28;20024;-77
2023/01/08 06:56:25;;;;;;;3.33;1.20;;;;;;;6.12;100.00;100152.13;5089454;28;20479;-77
2023/01/08 06:58:50;;;;;;;3.22;1.63;;;;;;;6.11;100.00;100152.34;5090819;28;20038;-77
2023/01/08 07:01:16;;;;;;;2.85;1.60;;;;;;;6.08;100.00;100148.22;5090717;28;20043;-77
2023/01/08 07:03:42;;;;;;;5.43;2.00;;;;;;;6.06;100.00;100144.13;5089327;28;20028;-77
2023/01/08 07:06:15;;;;;;;6.50;1.23;;;;;;;6.05;100.00;100142.47;5090708;28;20546;-77
2023/01/08 07:08:40;;;;;;;8.32;2.75;;;;;;;6.03;100.00;100152.44;5090723;28;20028;-77
2023/01/08 07:11:06;;;;;;;4.82;2.17;;;;;;;6.03;100.00;100141.84;5090713;28;20032;-77
2023/01/08 07:13:31;;;;;;;11.52;1.70;;;;;;;6.04;100.00;100140.84;5090620;28;20532;-77
2023/01/08 07:15:56;;;;;;;4.28;1.08;;;;;;;6.03;100.00;100139.22;5090658;28;20043;-77
2023/01/08 07:18:22;;;;;;;8.43;1.80;;;;;;;6.06;100.00;100134.34;5090444;28;20429;-76
2023/01/08 07:20:48;;;;;;;4.10;1.30;;;;;;;6.07;100.00;100146.56;5090358;28;20068;-77
2023/01/08 07:23:13;;;;;;;2.67;1.00;;;;;;;6.02;100.00;100122.47;5090332;28;20123;-77
2023/01/08 07:25:38;;;;;;;3.92;1.27;;;;;;;6.05;100.00;100124.78;5089659;28;20035;-77
2023/01/08 07:28:04;;;;;;;7.15;2.67;;;;;;;6.11;100.00;100121.38;5090329;28;20493;-76
2023/01/08 07:30:30;;;;;;;5.97;2.58;;;;;;;6.07;100.00;100114.81;5090212;28;20535;-77
2023/01/08 07:32:59;;;;;;;2.38;1.02;;;;;;;6.08;100.00;100118.31;5090112;28;20362;-76
2023/01/08 07:35:25;;;;;;;10.30;1.73;;;;;;;6.12;100.00;100125.66;5088991;28;20094;-77
2023/01/08 07:37:50;;;;;;;1.25;1.15;;;;;;;6.09;100.00;100130.50;5090299;28;20474;-77
2023/01/08 07:40:15;;;;;;;4.80;1.05;;;;;;;6.12;100.00;100128.31;5088960;28;20054;-76
2023/01/08 07:42:41;;;;;;;1.95;1.38;;;;;;;6.11;100.00;100123.22;5088617;28;20122;-77
2023/01/08 07:45:07;;;;;;;4.18;1.13;;;;;;;6.13;100.00;100137.06;5071726;28;20113;-77
2023/01/08 07:47:33;;;;;;;4.70;1.63;;;;;;;6.11;100.00;100131.16;5089863;28;20430;-77
2023/01/08 07:49:58;;;;;;;1.50;1.00;;;;;;;6.08;100.00;100132.34;5089940;28;20035;-77
2023/01/08 07:52:24;;;;;;;6.30;1.52;;;;;;;6.05;100.00;100137.16;5089862;28;20028;-77
2023/01/08 07:54:49;;;;;;;5.57;1.30;;;;;;;5.99;100.00;100127.34;5089961;28;20055;-76
2023/01/08 07:57:14;;;;;;;5.50;0.90;;;;;;;5.96;100.00;100127.72;5090041;28;20139;-76
2023/01/08 07:59:40;;;;;;;3.63;1.05;;;;;;;5.92;100.00;100140.44;5094933;28;20070;-76
2023/01/08 08:02:05;;;;;;;7.75;0.98;;;;;;;5.89;100.00;100133.72;5109151;28;20163;-76
2023/01/08 08:04:32;;;;;;;2.10;1.05;;;;;;;5.86;100.00;100134.06;5087882;28;20039;-76
2023/01/08 08:06:58;;;;;;;5.65;2.05;;;;;;;5.85;100.00;100134.25;5089622;28;20111;-76
2023/01/08 08:09:23;;;;;;;6.18;1.85;;;;;;;5.83;100.00;100129.13;5088494;28;20111;-76
2023/01/08 08:11:48;;;;;;;1.67;1.00;;;;;;;5.85;100.00;100134.25;5088355;28;20450;-76
2023/01/08 08:14:14;;;;;;;5.95;1.52;;;;;;;5.86;100.00;100125.31;5088333;28;20035;-77
2023/01/08 08:16:39;;;;;;;4.30;1.27;;;;;;;5.88;100.00;100123.31;5089676;28;20387;-76
2023/01/08 08:19:05;;;;;;;3.95;1.80;;;;;;;5.88;100.00;100102.13;5089805;28;20036;-79
2023/01/08 08:21:30;;;;;;;5.28;1.38;;;;;;;5.97;100.00;100100.22;5105770;28;20023;-76
2023/01/08 08:23:56;;;;;;;8.02;1.20;;;;;;;6.02;100.00;100105.78;5109085;28;20471;-76
2023/01/08 08:26:22;;;;;;;2.00;1.02;;;;;;;6.07;100.00;100095.47;5109035;28;20023;-76
2023/01/08 08:28:48;;;;;;;10.30;2.03;;;;;;;6.23;100.00;100097.88;5108987;28;20106;-76
2023/01/08 08:31:14;;;;;;;4.95;1.10;;;;;;;6.31;100.00;100095.16;5107426;28;20039;-76
2023/01/08 08:33:39;;;;;;;5.30;1.30;;;;;;;6.41;100.00;100088.72;5108931;28;20024;-76
2023/01/08 08:36:05;;;;;;;4.70;1.63;;;;;;;6.47;100.00;100088.78;5109682;28;20038;-76
2023/01/08 08:38:30;;;;;;;5.93;1.13;;;;;;;6.57;100.00;100085.81;5112993;28;20027;-76
2023/01/08 08:40:56;;;;;;;3.78;1.17;;;;;;;6.66;100.00;100092.63;5112755;27;20470;-76
2023/01/08 08:43:21;;;;;;;5.00;1.40;;;;;;;6.74;100.00;100094.34;5112836;28;20448;-76
2023/01/08 08:45:46;;;;;;;3.47;1.23;;;;;;;6.83;100.00;100095.81;5112692;27;20040;-76
2023/01/08 08:48:12;;;;;;;2.92;1.55;;;;;;;6.86;100.00;100098.09;5112932;28;20551;-76
2023/01/08 08:50:38;;;;;;;6.72;1.60;;;;;;;6.88;100.00;100097.91;5112926;28;20023;-77
2023/01/08 08:53:05;;;;;;;5.60;1.33;;;;;;;6.89;100.00;100094.25;5111471;28;20031;-77
2023/01/08 08:55:31;;;;;;;7.15;1.63;;;;;;;6.86;100.00;100086.66;5112744;28;20076;-76
2023/01/08 08:58:23;;;;;;;4.68;1.98;;;;;;;6.86;100.00;100084.84;5091654;28;20024;-76
2023/01/08 09:00:48;;;;;;;8.43;1.63;;;;;;;6.89;100.00;100083.63;5086857;28;20059;-77
2023/01/08 09:03:14;;;;;;;7.30;1.90;;;;;;;6.89;100.00;100075.69;5091602;28;20421;-76
2023/01/08 09:05:41;;;;;;;4.53;1.10;;;;;;;6.86;100.00;100082.19;5092885;28;20039;-76
2023/01/08 09:08:07;;;;;;;1.88;0.90;;;;;;;6.78;100.00;100069.06;5092906;28;20032;-76
2023/01/08 09:10:35;;;;;;;6.78;1.70;;;;;;;6.71;100.00;100074.34;5092848;28;20115;-76
2023/01/08 09:13:00;;;;;;;5.13;1.92;;;;;;;6.69;100.00;100072.88;5092766;28;20032;-76
2023/01/08 09:15:25;;;;;;;9.35;1.52;;;;;;;6.64;100.00;100069.97;5092891;28;20085;-76
2023/01/08 09:17:53;;;;;;;8.30;1.77;;;;;;;6.56;100.00;100082.34;5092518;28;20047;-76
2023/01/08 09:20:19;;;;;;;6.32;1.25;;;;;;;6.54;100.00;100081.69;5092684;28;20032;-76
2023/01/08 09:22:44;;;;;;;4.68;1.25;;;;;;;6.48;100.00;100095.72;5092609;28;20028;-76
2023/01/08 09:25:09;;;;;;;4.45;1.02;;;;;;;6.39;100.00;100075.63;5091193;28;20036;-77
2023/01/08 09:27:34;;;;;;;4.05;1.30;;;;;;;6.39;100.00;100080.94;5090826;28;20110;-77
2023/01/08 09:30:00;;;;;;;3.42;2.30;;;;;;;6.39;100.00;100080.94;5092462;28;20070;-76
2023/01/08 09:32:25;;;;;;;4.22;1.40;;;;;;;6.36;100.00;100092.72;5092540;28;20024;-77
2023/01/08 09:34:50;;;;;;;7.63;3.10;;;;;;;6.35;100.00;100082.34;5091119;28;20039;-77
2023/01/08 09:37:16;;;;;;;6.00;1.42;;;;;;;6.29;100.00;100070.66;5092321;28;20028;-76
2023/01/08 09:39:41;;;;;;;6.25;1.13;;;;;;;6.30;100.00;100084.72;5091158;28;20035;-76
2023/01/08 09:42:11;;;;;;;3.05;1.15;;;;;;;6.30;100.00;100077.59;5091144;28;20063;-77
2023/01/08 09:44:41;;;;;;;4.43;1.40;;;;;;;6.27;100.00;100064.75;5104781;28;20043;-76
2023/01/08 09:47:23;;;;;;;8.82;2.15;;;;;;;6.30;100.00;100066.19;5111872;28;20348;-76
2023/01/08 09:49:51;;;;;;;4.38;1.25;;;;;;;6.35;100.00;100069.09;5111509;28;20449;-76
2023/01/08 09:52:16;;;;;;;3.22;1.73;;;;;;;6.38;100.00;100067.91;5111725;28;20036;-76
2023/01/08 09:54:42;;;;;;;6.60;1.92;;;;;;;6.37;100.00;100061.78;5111689;28;20139;-76
2023/01/08 09:57:27;;;;;;;5.10;1.17;;;;;;;6.40;100.00;100058.75;5111812;28;20427;-76
2023/01/08 09:59:53;;;;;;;10.40;2.13;;;;;;;6.43;100.00;100060.22;5110560;28;20385;-78
2023/01/08 10:02:21;;;;;;;3.80;1.67;;;;;;;6.44;100.00;100053.91;5092079;28;20032;-78
2023/01/08 10:04:55;;;;;;;6.20;1.70;;;;;;;6.47;100.00;100056.16;5091763;28;20051;-78
2023/01/08 10:07:26;;;;;;;6.88;1.50;;;;;;;6.52;100.00;100059.06;5096471;28;20066;-78
2023/01/08 10:09:53;;;;;;;7.70;2.85;;;;;;;6.57;100.00;100049.53;5100683;28;20441;-78
2023/01/08 10:12:28;;;;;;;5.53;1.35;;;;;;;6.60;100.00;100045.69;5101843;28;20122;-78
2023/01/08 10:14:57;;;;;;;7.97;4.30;;;;;;;6.55;100.00;100035.69;5109203;28;20401;-78
2023/01/08 10:17:26;;;;;;;6.43;1.90;;;;;;;6.66;100.00;100038.81;5097766;28;20031;-78
2023/01/08 10:19:51;;;;;;;6.25;1.50;;;;;;;6.70;100.00;100040.88;5102962;28;20062;-78
2023/01/08 10:22:21;;;;;;;4.97;1.50;;;;;;;6.73;100.00;100027.28;5110280;28;20118;-78
2023/01/08 10:24:46;;;;;;;2.38;1.40;;;;;;;6.78;100.00;100031.97;5105564;28;20027;-78
2023/01/08 10:27:11;;;;;;;2.88;1.40;;;;;;;6.84;100.00;100028.56;5111140;27;20035;-77
2023/01/08 10:29:38;;;;;;;6.15;1.60;;;;;;;6.89;100.00;100022.66;5111143;27;20604;-78
2023/01/08 10:32:22;;;;;;;16.02;4.03;;;;;;;6.92;100.00;100020.47;5111060;27;20521;-78
2023/01/08 10:34:52;;;;;;;2.78;1.25;;;;;;;6.94;100.00;100013.16;5094712;28;20378;-77
2023/01/08 10:37:38;;;;;;;4.07;1.33;;;;;;;7.00;100.00;100017.66;5108013;28;20028;-77
2023/01/08 10:40:19;;;;;;;7.22;2.38;;;;;;;7.04;100.00;100007.47;5098362;28;20028;-78
2023/01/08 10:42:45;;;;;;;4.75;1.38;;;;;;;7.13;100.00;100003.69;5093162;28;20110;-80
2023/01/08 10:45:26;;;;;;;2.90;1.35;;;;;;;7.24;100.00;100007.63;5093678;28;20044;-76
2023/01/08 10:47:59;;;;;;;3.85;1.17;;;;;;;7.35;100.00;99998.28;5094191;28;20028;-77
2023/01/08 10:50:28;;;;;;;4.53;1.30;;;;;;;7.41;100.00;99998.34;5094190;28;20056;-71
2023/01/08 10:53:04;;;;;;;2.28;1.00;;;;;;;7.44;100.00;99997.94;5103980;28;20027;-77
2023/01/08 10:55:34;;;;;;;2.75;1.20;;;;;;;7.45;100.00;99996.09;5101886;28;20028;-76
2023/01/08 10:58:02;;;;;;;4.35;1.77;;;;;;;7.45;100.00;99985.47;5094453;28;20377;-77
2023/01/08 11:00:30;;;;;;;4.32;1.10;;;;;;;7.40;100.00;99980.75;5093026;28;20046;-76
2023/01/08 11:02:59;;;;;;;2.55;0.95;;;;;;;7.48;100.00;99974.47;5094757;28;20034;-76
2023/01/08 11:05:34;;;;;;;2.88;1.10;;;;;;;7.55;100.00;99979.81;5095552;28;20390;-76
2023/01/08 11:08:02;;;;;;;2.75;1.10;;;;;;;7.68;100.00;99970.06;5095627;28;20530;-76
2023/01/08 11:10:29;;;;;;;5.35;1.05;;;;;;;7.94;100.00;99965.00;5095272;28;20027;-76
2023/01/08 11:13:03;;;;;;;4.00;1.50;;;;;;;8.13;100.00;99966.88;5094724;28;20414;-77
2023/01/08 11:15:32;;;;;;;2.55;0.68;;;;;;;8.32;100.00;99965.25;5095772;28;20046;-76
2023/01/08 11:18:18;;;;;;;1.60;1.25;;;;;;;8.41;100.00;99958.78;5094794;28;20020;-77
2023/01/08 11:20:45;;;;;;;1.98;0.70;;;;;;;8.47;100.00;99952.63;5094108;28;20856;-76
2023/01/08 11:23:14;;;;;;;4.00;0.90;;;;;;;8.54;100.00;99957.94;5094502;28;20104;-75
2023/01/08 11:25:43;;;;;;;1.75;0.70;;;;;;;8.50;100.00;99933.63;5094336;28;20035;-74
2023/01/08 11:28:13;;;;;;;1.30;0.55;;;;;;;8.63;100.00;99946.06;5094822;28;20028;-75
2023/01/08 11:30:39;;;;;;;2.83;0.85;;;;;;;8.67;100.00;99934.03;5094752;28;20031;-76